Main page
METAR-TAF:

METAR-TAF

Airports :

Gran Canaria Airport

Gran Canaria, Spain

latitude: 27-56N, longitude: 015-23W, elevation: 23 m

Current weather observation

The report was made 33 minutes ago, at 03:30 UTC
Wind 5 kt from the West/Northwest
Temperature 13°C
Humidity 62%
Pressure 1017 hPa
Visibility 10 km or more
Scattered clouds at a height of 4000 ft

METAR: GCLP 220330Z 30005KT 9999 SCT040 13/06 Q1017 NOSIG

Time: 04:03 (04:03 UTC)

Forecast

The report was made 2 hours and 3 minutes ago, at 02:00 UTC
Forecast valid from 22 at 03 UTC to 23 at 03 UTC
Wind 10 kt from the Northwest
Visibility 10 km or more
Broken clouds at a height of 4500 ft
Probability 30% :
Temporary
from 22 at 15 UTC to 22 at 21 UTC
rain

TAF: GCLP 220200Z 2203/2303 32010KT 9999 BKN045 TX20/2214Z TN15/2207Z PROB30 TEMPO 2215/2221 RA

Weather observations and forecasts of more than 4000 airports (METAR and TAF reports).

The available stations are represented by yellow and red dots on the map.

Hover mouse over dot to see the name of the station.

Then click to see weather observations and forecasts.

To change the map : click on the green buttons with a black cross to zoom in, on the green button with a dash to zoom out, or on the green arrows for adjacent maps.


METAR-TAF: